sensor_id;sensor_type;location;lat;lon;timestamp;P1;durP1;ratioP1;P2;durP2;ratioP2
75603;SDS011;64187;51.010;13.792;2023-10-31T00:00:06;7.55;;;5.13;;
75603;SDS011;64187;51.010;13.792;2023-10-31T00:05:10;7.47;;;5.18;;
75603;SDS011;64187;51.010;13.792;2023-10-31T00:10:09;6.80;;;5.13;;
75603;SDS011;64187;51.010;13.792;2023-10-31T00:15:08;7.78;;;6.10;;
75603;SDS011;64187;51.010;13.792;2023-10-31T00:20:07;6.65;;;4.68;;
75603;SDS011;64187;51.010;13.792;2023-10-31T00:25:06;8.15;;;5.82;;
75603;SDS011;64187;51.010;13.792;2023-10-31T00:30:05;7.53;;;5.95;;
75603;SDS011;64187;51.010;13.792;2023-10-31T00:35:05;8.43;;;6.38;;
75603;SDS011;64187;51.010;13.792;2023-10-31T00:40:04;8.27;;;6.68;;
75603;SDS011;64187;51.010;13.792;2023-10-31T00:45:05;7.57;;;6.68;;
75603;SDS011;64187;51.010;13.792;2023-10-31T00:50:04;8.88;;;5.95;;
75603;SDS011;64187;51.010;13.792;2023-10-31T00:55:04;6.65;;;5.95;;
75603;SDS011;64187;51.010;13.792;2023-10-31T01:00:03;8.82;;;6.28;;
75603;SDS011;64187;51.010;13.792;2023-10-31T01:05:02;7.60;;;5.50;;
75603;SDS011;64187;51.010;13.792;2023-10-31T01:10:02;9.25;;;6.55;;
75603;SDS011;64187;51.010;13.792;2023-10-31T01:15:01;8.15;;;6.28;;
75603;SDS011;64187;51.010;13.792;2023-10-31T01:20:00;9.52;;;6.45;;
75603;SDS011;64187;51.010;13.792;2023-10-31T01:24:59;7.75;;;6.95;;
75603;SDS011;64187;51.010;13.792;2023-10-31T01:29:58;10.73;;;7.68;;
75603;SDS011;64187;51.010;13.792;2023-10-31T01:34:57;11.02;;;7.80;;
75603;SDS011;64187;51.010;13.792;2023-10-31T01:39:56;6.72;;;6.03;;
75603;SDS011;64187;51.010;13.792;2023-10-31T01:44:55;8.73;;;7.03;;
75603;SDS011;64187;51.010;13.792;2023-10-31T01:49:54;10.65;;;7.38;;
75603;SDS011;64187;51.010;13.792;2023-10-31T01:54:55;12.95;;;7.10;;
75603;SDS011;64187;51.010;13.792;2023-10-31T01:59:54;8.30;;;5.88;;
75603;SDS011;64187;51.010;13.792;2023-10-31T02:04:53;11.65;;;6.25;;
75603;SDS011;64187;51.010;13.792;2023-10-31T02:09:54;9.48;;;6.85;;
75603;SDS011;64187;51.010;13.792;2023-10-31T02:14:53;7.75;;;6.85;;
75603;SDS011;64187;51.010;13.792;2023-10-31T02:19:52;8.52;;;6.47;;
75603;SDS011;64187;51.010;13.792;2023-10-31T02:24:51;6.60;;;6.03;;
75603;SDS011;64187;51.010;13.792;2023-10-31T02:29:51;10.32;;;7.10;;
75603;SDS011;64187;51.010;13.792;2023-10-31T02:34:50;8.98;;;6.80;;
75603;SDS011;64187;51.010;13.792;2023-10-31T02:39:49;8.18;;;7.05;;
75603;SDS011;64187;51.010;13.792;2023-10-31T02:44:48;9.70;;;7.45;;
75603;SDS011;64187;51.010;13.792;2023-10-31T02:49:47;9.52;;;8.05;;
75603;SDS011;64187;51.010;13.792;2023-10-31T02:54:46;9.70;;;7.47;;
75603;SDS011;64187;51.010;13.792;2023-10-31T02:59:44;10.55;;;8.70;;
75603;SDS011;64187;51.010;13.792;2023-10-31T03:04:44;10.43;;;8.48;;
75603;SDS011;64187;51.010;13.792;2023-10-31T03:09:43;10.63;;;8.88;;
75603;SDS011;64187;51.010;13.792;2023-10-31T03:14:42;12.90;;;9.88;;
75603;SDS011;64187;51.010;13.792;2023-10-31T03:19:41;15.07;;;10.55;;
75603;SDS011;64187;51.010;13.792;2023-10-31T03:24:40;16.67;;;11.52;;
75603;SDS011;64187;51.010;13.792;2023-10-31T03:29:39;14.73;;;10.88;;
75603;SDS011;64187;51.010;13.792;2023-10-31T03:34:38;17.65;;;12.55;;
75603;SDS011;64187;51.010;13.792;2023-10-31T03:39:37;16.13;;;11.10;;
75603;SDS011;64187;51.010;13.792;2023-10-31T03:44:36;16.45;;;11.85;;
75603;SDS011;64187;51.010;13.792;2023-10-31T03:49:37;13.00;;;9.27;;
75603;SDS011;64187;51.010;13.792;2023-10-31T03:59:38;11.38;;;8.70;;
75603;SDS011;64187;51.010;13.792;2023-10-31T04:04:37;11.55;;;8.32;;
75603;SDS011;64187;51.010;13.792;2023-10-31T04:09:35;10.82;;;7.75;;
75603;SDS011;64187;51.010;13.792;2023-10-31T04:14:34;9.95;;;7.78;;
75603;SDS011;64187;51.010;13.792;2023-10-31T04:19:33;9.88;;;6.82;;
75603;SDS011;64187;51.010;13.792;2023-10-31T04:24:32;10.60;;;7.75;;
75603;SDS011;64187;51.010;13.792;2023-10-31T04:29:31;10.88;;;6.65;;
75603;SDS011;64187;51.010;13.792;2023-10-31T04:34:29;5.95;;;4.57;;
75603;SDS011;64187;51.010;13.792;2023-10-31T04:39:28;4.10;;;3.72;;
75603;SDS011;64187;51.010;13.792;2023-10-31T04:44:27;3.67;;;3.38;;
75603;SDS011;64187;51.010;13.792;2023-10-31T04:49:26;2.97;;;2.65;;
75603;SDS011;64187;51.010;13.792;2023-10-31T04:54:25;3.08;;;2.42;;
75603;SDS011;64187;51.010;13.792;2023-10-31T04:59:24;2.42;;;2.20;;
75603;SDS011;64187;51.010;13.792;2023-10-31T05:04:23;2.35;;;2.03;;
75603;SDS011;64187;51.010;13.792;2023-10-31T05:09:22;2.25;;;1.70;;
75603;SDS011;64187;51.010;13.792;2023-10-31T05:14:22;2.85;;;2.08;;
75603;SDS011;64187;51.010;13.792;2023-10-31T05:19:21;4.40;;;2.72;;
75603;SDS011;64187;51.010;13.792;2023-10-31T05:24:20;3.50;;;1.45;;
75603;SDS011;64187;51.010;13.792;2023-10-31T05:29:18;2.45;;;1.67;;
75603;SDS011;64187;51.010;13.792;2023-10-31T05:34:17;2.13;;;1.55;;
75603;SDS011;64187;51.010;13.792;2023-10-31T05:39:16;1.48;;;1.38;;
75603;SDS011;64187;51.010;13.792;2023-10-31T05:44:15;2.22;;;1.17;;
75603;SDS011;64187;51.010;13.792;2023-10-31T05:49:14;1.50;;;1.40;;
75603;SDS011;64187;51.010;13.792;2023-10-31T05:54:13;2.00;;;1.20;;
75603;SDS011;64187;51.010;13.792;2023-10-31T05:59:12;2.05;;;1.38;;
75603;SDS011;64187;51.010;13.792;2023-10-31T06:04:11;2.40;;;1.17;;
75603;SDS011;64187;51.010;13.792;2023-10-31T06:09:10;1.33;;;1.20;;
75603;SDS011;64187;51.010;13.792;2023-10-31T06:14:09;1.77;;;1.30;;
75603;SDS011;64187;51.010;13.792;2023-10-31T06:19:08;1.65;;;1.10;;
75603;SDS011;64187;51.010;13.792;2023-10-31T06:24:07;2.33;;;1.00;;
75603;SDS011;64187;51.010;13.792;2023-10-31T06:29:06;0.93;;;0.90;;
75603;SDS011;64187;51.010;13.792;2023-10-31T06:34:25;0.70;;;0.65;;
75603;SDS011;64187;51.010;13.792;2023-10-31T06:39:24;0.85;;;0.82;;
75603;SDS011;64187;51.010;13.792;2023-10-31T06:44:23;0.80;;;0.80;;
75603;SDS011;64187;51.010;13.792;2023-10-31T06:49:22;0.88;;;0.88;;
75603;SDS011;64187;51.010;13.792;2023-10-31T06:54:22;0.70;;;0.70;;
75603;SDS011;64187;51.010;13.792;2023-10-31T06:59:21;1.95;;;1.00;;
75603;SDS011;64187;51.010;13.792;2023-10-31T07:04:20;0.77;;;0.77;;
75603;SDS011;64187;51.010;13.792;2023-10-31T07:09:19;0.80;;;0.70;;
75603;SDS011;64187;51.010;13.792;2023-10-31T07:14:18;1.55;;;0.98;;
75603;SDS011;64187;51.010;13.792;2023-10-31T07:19:17;0.80;;;0.73;;
75603;SDS011;64187;51.010;13.792;2023-10-31T07:24:16;0.63;;;0.60;;
75603;SDS011;64187;51.010;13.792;2023-10-31T07:29:14;1.48;;;0.85;;
75603;SDS011;64187;51.010;13.792;2023-10-31T07:34:13;1.70;;;0.75;;
75603;SDS011;64187;51.010;13.792;2023-10-31T07:39:15;1.52;;;0.70;;
75603;SDS011;64187;51.010;13.792;2023-10-31T07:44:14;0.60;;;0.60;;
75603;SDS011;64187;51.010;13.792;2023-10-31T07:49:13;0.57;;;0.57;;
75603;SDS011;64187;51.010;13.792;2023-10-31T07:54:12;0.82;;;0.52;;
75603;SDS011;64187;51.010;13.792;2023-10-31T07:59:11;0.57;;;0.57;;
75603;SDS011;64187;51.010;13.792;2023-10-31T08:04:10;0.60;;;0.60;;
75603;SDS011;64187;51.010;13.792;2023-10-31T08:09:09;1.55;;;0.80;;
75603;SDS011;64187;51.010;13.792;2023-10-31T08:14:07;0.75;;;0.70;;
75603;SDS011;64187;51.010;13.792;2023-10-31T08:19:06;1.00;;;1.00;;
75603;SDS011;64187;51.010;13.792;2023-10-31T08:24:05;1.25;;;1.00;;
75603;SDS011;64187;51.010;13.792;2023-10-31T08:29:05;0.70;;;0.68;;
75603;SDS011;64187;51.010;13.792;2023-10-31T08:34:04;0.77;;;0.47;;
75603;SDS011;64187;51.010;13.792;2023-10-31T08:39:02;0.90;;;0.70;;
75603;SDS011;64187;51.010;13.792;2023-10-31T08:44:02;1.05;;;0.80;;
75603;SDS011;64187;51.010;13.792;2023-10-31T08:49:02;0.70;;;0.70;;
75603;SDS011;64187;51.010;13.792;2023-10-31T08:54:01;0.70;;;0.70;;
75603;SDS011;64187;51.010;13.792;2023-10-31T08:59:00;2.58;;;0.70;;
75603;SDS011;64187;51.010;13.792;2023-10-31T09:03:59;1.30;;;1.13;;
75603;SDS011;64187;51.010;13.792;2023-10-31T09:08:59;0.95;;;0.50;;
75603;SDS011;64187;51.010;13.792;2023-10-31T09:13:58;0.80;;;0.80;;
75603;SDS011;64187;51.010;13.792;2023-10-31T09:18:57;0.80;;;0.63;;
75603;SDS011;64187;51.010;13.792;2023-10-31T09:23:55;1.85;;;0.82;;
75603;SDS011;64187;51.010;13.792;2023-10-31T09:28:54;1.23;;;0.70;;
75603;SDS011;64187;51.010;13.792;2023-10-31T09:33:54;0.65;;;0.60;;
75603;SDS011;64187;51.010;13.792;2023-10-31T09:38:53;1.23;;;0.50;;
75603;SDS011;64187;51.010;13.792;2023-10-31T09:43:51;0.70;;;0.70;;
75603;SDS011;64187;51.010;13.792;2023-10-31T09:48:51;1.08;;;0.63;;
75603;SDS011;64187;51.010;13.792;2023-10-31T09:53:51;0.60;;;0.60;;
75603;SDS011;64187;51.010;13.792;2023-10-31T09:58:53;0.50;;;0.50;;
75603;SDS011;64187;51.010;13.792;2023-10-31T10:03:52;0.70;;;0.40;;
75603;SDS011;64187;51.010;13.792;2023-10-31T10:08:52;0.77;;;0.55;;
75603;SDS011;64187;51.010;13.792;2023-10-31T10:13:51;0.50;;;0.40;;
75603;SDS011;64187;51.010;13.792;2023-10-31T10:18:51;1.85;;;0.60;;
75603;SDS011;64187;51.010;13.792;2023-10-31T10:23:51;0.90;;;0.85;;
75603;SDS011;64187;51.010;13.792;2023-10-31T10:28:50;0.80;;;0.60;;
75603;SDS011;64187;51.010;13.792;2023-10-31T10:33:52;0.63;;;0.55;;
75603;SDS011;64187;51.010;13.792;2023-10-31T10:38:51;0.60;;;0.60;;
75603;SDS011;64187;51.010;13.792;2023-10-31T10:43:55;0.47;;;0.47;;
75603;SDS011;64187;51.010;13.792;2023-10-31T10:49:05;0.60;;;0.60;;
75603;SDS011;64187;51.010;13.792;2023-10-31T10:54:08;0.77;;;0.77;;
75603;SDS011;64187;51.010;13.792;2023-10-31T10:59:14;1.05;;;0.80;;
75603;SDS011;64187;51.010;13.792;2023-10-31T11:04:16;0.70;;;0.70;;
75603;SDS011;64187;51.010;13.792;2023-10-31T11:09:16;0.77;;;0.77;;
75603;SDS011;64187;51.010;13.792;2023-10-31T11:14:16;0.60;;;0.60;;
75603;SDS011;64187;51.010;13.792;2023-10-31T11:19:16;0.65;;;0.63;;
75603;SDS011;64187;51.010;13.792;2023-10-31T11:24:16;0.60;;;0.60;;
75603;SDS011;64187;51.010;13.792;2023-10-31T11:29:15;0.70;;;0.70;;
75603;SDS011;64187;51.010;13.792;2023-10-31T11:34:16;0.60;;;0.60;;
75603;SDS011;64187;51.010;13.792;2023-10-31T11:39:21;0.45;;;0.45;;
75603;SDS011;64187;51.010;13.792;2023-10-31T11:44:26;0.30;;;0.20;;
75603;SDS011;64187;51.010;13.792;2023-10-31T11:49:45;0.52;;;0.52;;
75603;SDS011;64187;51.010;13.792;2023-10-31T11:54:45;2.95;;;0.63;;
75603;SDS011;64187;51.010;13.792;2023-10-31T11:59:45;0.73;;;0.40;;
75603;SDS011;64187;51.010;13.792;2023-10-31T12:04:44;1.30;;;0.52;;
75603;SDS011;64187;51.010;13.792;2023-10-31T12:09:46;0.47;;;0.47;;
75603;SDS011;64187;51.010;13.792;2023-10-31T12:14:45;0.68;;;0.68;;
75603;SDS011;64187;51.010;13.792;2023-10-31T12:19:44;1.25;;;0.65;;
75603;SDS011;64187;51.010;13.792;2023-10-31T12:24:43;0.73;;;0.63;;
75603;SDS011;64187;51.010;13.792;2023-10-31T12:29:42;0.60;;;0.60;;
75603;SDS011;64187;51.010;13.792;2023-10-31T12:34:43;0.60;;;0.60;;
75603;SDS011;64187;51.010;13.792;2023-10-31T12:39:42;0.57;;;0.57;;
75603;SDS011;64187;51.010;13.792;2023-10-31T12:44:41;0.60;;;0.60;;
75603;SDS011;64187;51.010;13.792;2023-10-31T12:49:40;1.58;;;0.77;;
75603;SDS011;64187;51.010;13.792;2023-10-31T12:54:39;0.63;;;0.63;;
75603;SDS011;64187;51.010;13.792;2023-10-31T12:59:38;1.05;;;0.35;;
75603;SDS011;64187;51.010;13.792;2023-10-31T13:04:37;0.70;;;0.70;;
75603;SDS011;64187;51.010;13.792;2023-10-31T13:09:38;0.60;;;0.60;;
75603;SDS011;64187;51.010;13.792;2023-10-31T13:14:37;1.98;;;0.95;;
75603;SDS011;64187;51.010;13.792;2023-10-31T13:19:37;0.93;;;0.80;;
75603;SDS011;64187;51.010;13.792;2023-10-31T13:24:36;0.82;;;0.77;;
75603;SDS011;64187;51.010;13.792;2023-10-31T13:29:35;0.55;;;0.52;;
75603;SDS011;64187;51.010;13.792;2023-10-31T13:34:34;0.70;;;0.70;;
75603;SDS011;64187;51.010;13.792;2023-10-31T13:39:33;0.70;;;0.70;;
75603;SDS011;64187;51.010;13.792;2023-10-31T13:44:32;0.90;;;0.60;;
75603;SDS011;64187;51.010;13.792;2023-10-31T13:49:32;1.80;;;1.08;;
75603;SDS011;64187;51.010;13.792;2023-10-31T13:54:31;2.10;;;1.00;;
75603;SDS011;64187;51.010;13.792;2023-10-31T13:59:30;1.00;;;0.85;;
75603;SDS011;64187;51.010;13.792;2023-10-31T14:04:30;1.35;;;1.00;;
75603;SDS011;64187;51.010;13.792;2023-10-31T14:09:30;2.65;;;1.17;;
75603;SDS011;64187;51.010;13.792;2023-10-31T14:14:29;2.60;;;1.50;;
75603;SDS011;64187;51.010;13.792;2023-10-31T14:19:28;0.98;;;0.80;;
75603;SDS011;64187;51.010;13.792;2023-10-31T14:24:26;1.00;;;0.90;;
75603;SDS011;64187;51.010;13.792;2023-10-31T14:29:25;1.13;;;1.00;;
75603;SDS011;64187;51.010;13.792;2023-10-31T14:34:24;1.00;;;0.90;;
75603;SDS011;64187;51.010;13.792;2023-10-31T14:39:23;1.15;;;1.10;;
75603;SDS011;64187;51.010;13.792;2023-10-31T14:44:22;1.08;;;0.90;;
75603;SDS011;64187;51.010;13.792;2023-10-31T14:49:20;0.88;;;0.50;;
75603;SDS011;64187;51.010;13.792;2023-10-31T14:54:20;1.13;;;0.93;;
75603;SDS011;64187;51.010;13.792;2023-10-31T14:59:18;0.98;;;0.90;;
75603;SDS011;64187;51.010;13.792;2023-10-31T15:04:17;0.80;;;0.80;;
75603;SDS011;64187;51.010;13.792;2023-10-31T15:09:16;2.35;;;0.98;;
75603;SDS011;64187;51.010;13.792;2023-10-31T15:14:17;0.80;;;0.60;;
75603;SDS011;64187;51.010;13.792;2023-10-31T15:19:16;1.42;;;0.90;;
75603;SDS011;64187;51.010;13.792;2023-10-31T15:24:15;1.08;;;0.93;;
75603;SDS011;64187;51.010;13.792;2023-10-31T15:29:14;0.73;;;0.50;;
75603;SDS011;64187;51.010;13.792;2023-10-31T15:34:13;0.88;;;0.70;;
75603;SDS011;64187;51.010;13.792;2023-10-31T15:39:11;1.38;;;0.90;;
75603;SDS011;64187;51.010;13.792;2023-10-31T15:44:13;2.25;;;1.20;;
75603;SDS011;64187;51.010;13.792;2023-10-31T15:49:12;2.55;;;1.30;;
75603;SDS011;64187;51.010;13.792;2023-10-31T15:54:11;1.55;;;1.23;;
75603;SDS011;64187;51.010;13.792;2023-10-31T15:59:10;1.85;;;1.20;;
75603;SDS011;64187;51.010;13.792;2023-10-31T16:04:09;2.15;;;1.20;;
75603;SDS011;64187;51.010;13.792;2023-10-31T16:09:08;2.88;;;2.28;;
75603;SDS011;64187;51.010;13.792;2023-10-31T16:14:07;1.70;;;1.30;;
75603;SDS011;64187;51.010;13.792;2023-10-31T16:19:06;1.63;;;1.02;;
75603;SDS011;64187;51.010;13.792;2023-10-31T16:24:05;1.50;;;1.27;;
75603;SDS011;64187;51.010;13.792;2023-10-31T16:29:04;1.20;;;1.10;;
75603;SDS011;64187;51.010;13.792;2023-10-31T16:34:06;2.83;;;1.13;;
75603;SDS011;64187;51.010;13.792;2023-10-31T16:39:05;1.38;;;1.25;;
75603;SDS011;64187;51.010;13.792;2023-10-31T16:44:05;1.95;;;1.25;;
75603;SDS011;64187;51.010;13.792;2023-10-31T16:49:04;1.30;;;1.20;;
75603;SDS011;64187;51.010;13.792;2023-10-31T16:54:03;1.73;;;1.55;;
75603;SDS011;64187;51.010;13.792;2023-10-31T16:59:02;1.20;;;1.10;;
75603;SDS011;64187;51.010;13.792;2023-10-31T17:04:02;1.10;;;1.00;;
75603;SDS011;64187;51.010;13.792;2023-10-31T17:09:01;1.00;;;0.90;;
75603;SDS011;64187;51.010;13.792;2023-10-31T17:14:00;1.83;;;1.30;;
75603;SDS011;64187;51.010;13.792;2023-10-31T17:18:59;1.38;;;1.27;;
75603;SDS011;64187;51.010;13.792;2023-10-31T17:23:58;1.70;;;1.35;;
75603;SDS011;64187;51.010;13.792;2023-10-31T17:28:57;1.27;;;1.17;;
75603;SDS011;64187;51.010;13.792;2023-10-31T17:33:55;2.25;;;1.58;;
75603;SDS011;64187;51.010;13.792;2023-10-31T17:38:55;2.85;;;1.40;;
75603;SDS011;64187;51.010;13.792;2023-10-31T17:43:54;2.78;;;1.35;;
75603;SDS011;64187;51.010;13.792;2023-10-31T17:48:53;1.70;;;1.40;;
75603;SDS011;64187;51.010;13.792;2023-10-31T17:53:52;2.13;;;1.40;;
75603;SDS011;64187;51.010;13.792;2023-10-31T17:58:52;2.85;;;2.05;;
75603;SDS011;64187;51.010;13.792;2023-10-31T18:03:51;1.67;;;1.50;;
75603;SDS011;64187;51.010;13.792;2023-10-31T18:08:50;5.72;;;3.28;;
75603;SDS011;64187;51.010;13.792;2023-10-31T18:13:49;1.98;;;1.77;;
75603;SDS011;64187;51.010;13.792;2023-10-31T18:18:48;11.18;;;5.78;;
75603;SDS011;64187;51.010;13.792;2023-10-31T18:23:47;5.45;;;3.85;;
75603;SDS011;64187;51.010;13.792;2023-10-31T18:28:46;3.92;;;3.42;;
75603;SDS011;64187;51.010;13.792;2023-10-31T18:33:46;5.68;;;4.32;;
75603;SDS011;64187;51.010;13.792;2023-10-31T18:38:44;2.70;;;2.25;;
75603;SDS011;64187;51.010;13.792;2023-10-31T18:43:44;4.72;;;3.95;;
75603;SDS011;64187;51.010;13.792;2023-10-31T18:49:03;2.88;;;2.63;;
75603;SDS011;64187;51.010;13.792;2023-10-31T18:54:02;2.50;;;2.10;;
75603;SDS011;64187;51.010;13.792;2023-10-31T18:59:02;2.60;;;1.58;;
75603;SDS011;64187;51.010;13.792;2023-10-31T19:04:02;2.00;;;1.58;;
75603;SDS011;64187;51.010;13.792;2023-10-31T19:09:02;3.55;;;2.05;;
75603;SDS011;64187;51.010;13.792;2023-10-31T19:14:04;3.08;;;2.55;;
75603;SDS011;64187;51.010;13.792;2023-10-31T19:19:03;3.70;;;2.75;;
75603;SDS011;64187;51.010;13.792;2023-10-31T19:24:02;2.28;;;2.05;;
75603;SDS011;64187;51.010;13.792;2023-10-31T19:29:01;13.52;;;8.27;;
75603;SDS011;64187;51.010;13.792;2023-10-31T19:34:00;2.95;;;1.85;;
75603;SDS011;64187;51.010;13.792;2023-10-31T19:38:59;3.45;;;1.45;;
75603;SDS011;64187;51.010;13.792;2023-10-31T19:43:58;2.15;;;1.35;;
75603;SDS011;64187;51.010;13.792;2023-10-31T19:48:57;2.38;;;1.60;;
75603;SDS011;64187;51.010;13.792;2023-10-31T19:53:56;2.50;;;1.25;;
75603;SDS011;64187;51.010;13.792;2023-10-31T19:58:55;2.40;;;1.50;;
75603;SDS011;64187;51.010;13.792;2023-10-31T20:03:56;1.75;;;1.30;;
75603;SDS011;64187;51.010;13.792;2023-10-31T20:08:55;1.80;;;1.00;;
75603;SDS011;64187;51.010;13.792;2023-10-31T20:13:54;1.98;;;1.10;;
75603;SDS011;64187;51.010;13.792;2023-10-31T20:18:52;2.13;;;1.20;;
75603;SDS011;64187;51.010;13.792;2023-10-31T20:23:52;1.33;;;1.05;;
75603;SDS011;64187;51.010;13.792;2023-10-31T20:28:51;1.63;;;1.23;;
75603;SDS011;64187;51.010;13.792;2023-10-31T20:33:50;3.15;;;1.80;;
75603;SDS011;64187;51.010;13.792;2023-10-31T20:38:49;3.35;;;1.40;;
75603;SDS011;64187;51.010;13.792;2023-10-31T20:43:48;2.08;;;1.40;;
75603;SDS011;64187;51.010;13.792;2023-10-31T20:48:47;2.83;;;1.13;;
75603;SDS011;64187;51.010;13.792;2023-10-31T20:53:46;1.10;;;0.90;;
75603;SDS011;64187;51.010;13.792;2023-10-31T20:58:45;2.97;;;1.10;;
75603;SDS011;64187;51.010;13.792;2023-10-31T21:03:44;1.88;;;1.00;;
75603;SDS011;64187;51.010;13.792;2023-10-31T21:08:43;2.67;;;1.05;;
75603;SDS011;64187;51.010;13.792;2023-10-31T21:13:42;1.55;;;1.27;;
75603;SDS011;64187;51.010;13.792;2023-10-31T21:18:41;0.90;;;0.75;;
75603;SDS011;64187;51.010;13.792;2023-10-31T21:23:40;1.77;;;1.20;;
75603;SDS011;64187;51.010;13.792;2023-10-31T21:28:39;2.55;;;1.10;;
75603;SDS011;64187;51.010;13.792;2023-10-31T21:33:38;1.38;;;1.10;;
75603;SDS011;64187;51.010;13.792;2023-10-31T21:38:37;1.77;;;1.10;;
75603;SDS011;64187;51.010;13.792;2023-10-31T21:43:39;2.10;;;1.00;;
75603;SDS011;64187;51.010;13.792;2023-10-31T21:48:37;1.45;;;1.30;;
75603;SDS011;64187;51.010;13.792;2023-10-31T21:53:37;2.53;;;1.10;;
75603;SDS011;64187;51.010;13.792;2023-10-31T21:58:36;3.40;;;1.33;;
75603;SDS011;64187;51.010;13.792;2023-10-31T22:03:35;3.05;;;1.20;;
75603;SDS011;64187;51.010;13.792;2023-10-31T22:08:34;2.42;;;1.15;;
75603;SDS011;64187;51.010;13.792;2023-10-31T22:13:33;4.80;;;1.10;;
75603;SDS011;64187;51.010;13.792;2023-10-31T22:18:32;4.60;;;1.40;;
75603;SDS011;64187;51.010;13.792;2023-10-31T22:23:31;1.88;;;0.88;;
75603;SDS011;64187;51.010;13.792;2023-10-31T22:28:30;1.30;;;1.08;;
75603;SDS011;64187;51.010;13.792;2023-10-31T22:33:29;1.83;;;1.10;;
75603;SDS011;64187;51.010;13.792;2023-10-31T22:38:27;1.85;;;1.30;;
75603;SDS011;64187;51.010;13.792;2023-10-31T22:43:27;3.50;;;1.52;;
75603;SDS011;64187;51.010;13.792;2023-10-31T22:48:26;2.08;;;1.13;;
75603;SDS011;64187;51.010;13.792;2023-10-31T22:53:25;4.63;;;2.42;;
75603;SDS011;64187;51.010;13.792;2023-10-31T23:03:27;1.73;;;1.27;;
75603;SDS011;64187;51.010;13.792;2023-10-31T23:08:26;3.15;;;1.58;;
75603;SDS011;64187;51.010;13.792;2023-10-31T23:13:25;3.38;;;1.27;;
75603;SDS011;64187;51.010;13.792;2023-10-31T23:18:24;3.05;;;1.60;;
75603;SDS011;64187;51.010;13.792;2023-10-31T23:23:23;2.92;;;1.10;;
75603;SDS011;64187;51.010;13.792;2023-10-31T23:28:23;2.22;;;1.50;;
75603;SDS011;64187;51.010;13.792;2023-10-31T23:33:22;2.83;;;2.03;;
75603;SDS011;64187;51.010;13.792;2023-10-31T23:38:21;3.75;;;1.38;;
75603;SDS011;64187;51.010;13.792;2023-10-31T23:43:20;2.15;;;1.10;;
75603;SDS011;64187;51.010;13.792;2023-10-31T23:48:19;2.03;;;1.27;;
75603;SDS011;64187;51.010;13.792;2023-10-31T23:53:18;1.67;;;1.17;;
75603;SDS011;64187;51.010;13.792;2023-10-31T23:58:17;3.17;;;1.50;;
